weather.gov     
National Weather Service

Terminal Aerodrome Forecast
NWS Homepage
This page is being discontinued on March 12, 2014.
The same data is available at this site. Please update your bookmarks.
Thank you, and we apologize for the inconvenience.
Please send an email to SR-SRH.Webmaster@noaa.gov with any concerns.


Current Version
Previous Version:    01  02  03  04  05  06  07  08  09  10  11  12  13  14  15  16  17  18  19  20  21  22  23  24  25  26  27  28  29  
[Printable]
545
FTUS43 KARX 230525
TAFLSE
TAF
KLSE 230525Z 2306/2406 16008KT P6SM VCSH BKN100
      TEMPO 2306/2307 5SM -SHRA BKN035
     FM231100 17008KT P6SM -SHRA BKN040
      TEMPO 2311/2315 5SM -SHRA BKN025
     FM231600 18008KT P6SM VCSH BKN025
     FM232200 19005KT P6SM SCT025=


545
FTUS43 KARX 230525
TAFLSE
TAF
KLSE 230525Z 2306/2406 16008KT P6SM VCSH BKN100
      TEMPO 2306/2307 5SM -SHRA BKN035
     FM231100 17008KT P6SM -SHRA BKN040
      TEMPO 2311/2315 5SM -SHRA BKN025
     FM231600 18008KT P6SM VCSH BKN025
     FM232200 19005KT P6SM SCT025=




U.S. Dept. of Commerce
NOAA National Weather Service
1325 East West Highway
Silver Spring, MD 20910
E-mail: w-nws.webmaster@noaa.gov
Page last modified: May 16, 2007
NATIONAL WEATHER SERVICE: for Safety, for Work, for Fun - FOR LIFE